sensor_id;sensor_type;location;lat;lon;timestamp;temperature;humidity
20610;DHT22;10463;52.378;9.688;2022-07-29T00:01:35;27.70;23.20
20610;DHT22;10463;52.378;9.688;2022-07-29T00:04:22;27.70;23.20
20610;DHT22;10463;52.378;9.688;2022-07-29T00:07:07;27.70;23.20
20610;DHT22;10463;52.378;9.688;2022-07-29T00:09:51;27.70;23.20
20610;DHT22;10463;52.378;9.688;2022-07-29T00:12:36;27.80;23.20
20610;DHT22;10463;52.378;9.688;2022-07-29T00:15:21;27.80;23.30
20610;DHT22;10463;52.378;9.688;2022-07-29T00:18:06;27.80;23.20
20610;DHT22;10463;52.378;9.688;2022-07-29T00:20:52;27.80;23.20
20610;DHT22;10463;52.378;9.688;2022-07-29T00:23:37;27.80;23.20
20610;DHT22;10463;52.378;9.688;2022-07-29T00:26:23;27.80;23.20
20610;DHT22;10463;52.378;9.688;2022-07-29T00:29:08;27.80;23.10
20610;DHT22;10463;52.378;9.688;2022-07-29T00:31:53;27.80;23.00
20610;DHT22;10463;52.378;9.688;2022-07-29T00:34:38;27.80;23.00
20610;DHT22;10463;52.378;9.688;2022-07-29T00:37:43;27.80;23.50
20610;DHT22;10463;52.378;9.688;2022-07-29T00:40:28;27.80;22.90
20610;DHT22;10463;52.378;9.688;2022-07-29T00:43:14;27.80;22.90
20610;DHT22;10463;52.378;9.688;2022-07-29T00:45:59;27.80;22.80
20610;DHT22;10463;52.378;9.688;2022-07-29T00:48:43;27.80;22.80
20610;DHT22;10463;52.378;9.688;2022-07-29T00:51:28;27.80;22.80
20610;DHT22;10463;52.378;9.688;2022-07-29T00:54:16;27.70;22.70
20610;DHT22;10463;52.378;9.688;2022-07-29T00:57:01;27.70;22.80
20610;DHT22;10463;52.378;9.688;2022-07-29T00:59:46;27.70;22.70
20610;DHT22;10463;52.378;9.688;2022-07-29T01:02:32;27.70;22.70
20610;DHT22;10463;52.378;9.688;2022-07-29T01:05:19;27.70;22.70
20610;DHT22;10463;52.378;9.688;2022-07-29T01:08:06;27.70;22.70
20610;DHT22;10463;52.378;9.688;2022-07-29T01:10:52;27.60;22.60
20610;DHT22;10463;52.378;9.688;2022-07-29T01:13:38;27.70;22.70
20610;DHT22;10463;52.378;9.688;2022-07-29T01:16:34;27.60;22.60
20610;DHT22;10463;52.378;9.688;2022-07-29T01:19:48;27.60;23.20
20610;DHT22;10463;52.378;9.688;2022-07-29T01:23:09;27.60;22.60
20610;DHT22;10463;52.378;9.688;2022-07-29T01:26:08;27.60;22.60
20610;DHT22;10463;52.378;9.688;2022-07-29T01:29:06;27.50;22.60
20610;DHT22;10463;52.378;9.688;2022-07-29T01:31:58;27.50;22.60
20610;DHT22;10463;52.378;9.688;2022-07-29T01:34:50;27.50;22.60
20610;DHT22;10463;52.378;9.688;2022-07-29T01:37:43;27.50;22.60
20610;DHT22;10463;52.378;9.688;2022-07-29T01:40:34;27.40;22.60
20610;DHT22;10463;52.378;9.688;2022-07-29T01:43:23;27.40;22.60
20610;DHT22;10463;52.378;9.688;2022-07-29T01:46:19;27.40;22.60
20610;DHT22;10463;52.378;9.688;2022-07-29T01:49:11;27.40;22.60
20610;DHT22;10463;52.378;9.688;2022-07-29T01:52:02;27.40;22.60
20610;DHT22;10463;52.378;9.688;2022-07-29T01:54:53;27.30;22.60
20610;DHT22;10463;52.378;9.688;2022-07-29T01:57:42;27.30;22.60
20610;DHT22;10463;52.378;9.688;2022-07-29T02:00:30;27.30;22.60
20610;DHT22;10463;52.378;9.688;2022-07-29T02:03:18;27.30;22.60
20610;DHT22;10463;52.378;9.688;2022-07-29T02:06:06;27.20;22.60
20610;DHT22;10463;52.378;9.688;2022-07-29T02:08:52;27.20;22.60
20610;DHT22;10463;52.378;9.688;2022-07-29T02:11:38;27.20;22.60
20610;DHT22;10463;52.378;9.688;2022-07-29T02:14:25;27.20;22.60
20610;DHT22;10463;52.378;9.688;2022-07-29T02:17:12;27.20;22.60
20610;DHT22;10463;52.378;9.688;2022-07-29T02:20:02;27.20;22.60
20610;DHT22;10463;52.378;9.688;2022-07-29T02:22:49;27.10;22.60
20610;DHT22;10463;52.378;9.688;2022-07-29T02:25:35;27.10;22.60
20610;DHT22;10463;52.378;9.688;2022-07-29T02:28:22;27.10;22.60
20610;DHT22;10463;52.378;9.688;2022-07-29T02:31:09;27.10;22.60
20610;DHT22;10463;52.378;9.688;2022-07-29T02:33:56;27.00;22.60
20610;DHT22;10463;52.378;9.688;2022-07-29T02:36:44;27.00;22.60
20610;DHT22;10463;52.378;9.688;2022-07-29T02:39:30;27.00;22.60
20610;DHT22;10463;52.378;9.688;2022-07-29T02:42:17;27.00;22.60
20610;DHT22;10463;52.378;9.688;2022-07-29T02:45:03;27.00;22.70
20610;DHT22;10463;52.378;9.688;2022-07-29T02:47:49;27.00;22.70
20610;DHT22;10463;52.378;9.688;2022-07-29T02:50:39;27.00;22.70
20610;DHT22;10463;52.378;9.688;2022-07-29T02:53:29;26.90;22.70
20610;DHT22;10463;52.378;9.688;2022-07-29T02:56:19;26.90;22.70
20610;DHT22;10463;52.378;9.688;2022-07-29T02:59:10;26.90;22.70
20610;DHT22;10463;52.378;9.688;2022-07-29T03:01:58;26.90;22.70
20610;DHT22;10463;52.378;9.688;2022-07-29T03:04:44;26.90;22.70
20610;DHT22;10463;52.378;9.688;2022-07-29T03:07:30;26.80;22.70
20610;DHT22;10463;52.378;9.688;2022-07-29T03:10:18;26.80;22.70
20610;DHT22;10463;52.378;9.688;2022-07-29T03:13:04;26.80;22.70
20610;DHT22;10463;52.378;9.688;2022-07-29T03:15:50;26.80;22.70
20610;DHT22;10463;52.378;9.688;2022-07-29T03:18:36;26.80;22.80
20610;DHT22;10463;52.378;9.688;2022-07-29T03:21:21;26.80;22.80
20610;DHT22;10463;52.378;9.688;2022-07-29T03:24:06;26.80;22.80
20610;DHT22;10463;52.378;9.688;2022-07-29T03:26:54;26.70;22.80
20610;DHT22;10463;52.378;9.688;2022-07-29T03:29:38;26.70;22.80
20610;DHT22;10463;52.378;9.688;2022-07-29T03:32:23;26.70;22.80
20610;DHT22;10463;52.378;9.688;2022-07-29T03:35:08;26.70;22.80
20610;DHT22;10463;52.378;9.688;2022-07-29T03:37:53;26.70;22.80
20610;DHT22;10463;52.378;9.688;2022-07-29T03:40:42;26.60;22.80
20610;DHT22;10463;52.378;9.688;2022-07-29T03:43:31;26.60;22.90
20610;DHT22;10463;52.378;9.688;2022-07-29T03:46:17;26.60;22.90
20610;DHT22;10463;52.378;9.688;2022-07-29T03:49:06;26.60;22.90
20610;DHT22;10463;52.378;9.688;2022-07-29T03:51:53;26.60;22.90
20610;DHT22;10463;52.378;9.688;2022-07-29T03:54:38;26.50;22.90
20610;DHT22;10463;52.378;9.688;2022-07-29T03:57:26;26.50;23.00
20610;DHT22;10463;52.378;9.688;2022-07-29T04:00:14;26.50;23.00
20610;DHT22;10463;52.378;9.688;2022-07-29T04:03:00;26.50;23.00
20610;DHT22;10463;52.378;9.688;2022-07-29T04:05:58;26.50;23.00
20610;DHT22;10463;52.378;9.688;2022-07-29T04:08:43;26.50;23.00
20610;DHT22;10463;52.378;9.688;2022-07-29T04:11:28;26.40;23.00
20610;DHT22;10463;52.378;9.688;2022-07-29T04:14:12;26.40;23.00
20610;DHT22;10463;52.378;9.688;2022-07-29T04:16:58;26.40;23.00
20610;DHT22;10463;52.378;9.688;2022-07-29T04:19:43;26.40;23.00
20610;DHT22;10463;52.378;9.688;2022-07-29T04:22:28;26.40;23.00
20610;DHT22;10463;52.378;9.688;2022-07-29T04:25:13;26.40;23.00
20610;DHT22;10463;52.378;9.688;2022-07-29T04:27:57;26.30;22.90
20610;DHT22;10463;52.378;9.688;2022-07-29T04:30:45;26.30;22.90
20610;DHT22;10463;52.378;9.688;2022-07-29T04:33:31;26.30;22.90
20610;DHT22;10463;52.378;9.688;2022-07-29T04:36:16;26.30;22.90
20610;DHT22;10463;52.378;9.688;2022-07-29T04:39:00;26.30;22.90
20610;DHT22;10463;52.378;9.688;2022-07-29T04:41:46;26.30;22.90
20610;DHT22;10463;52.378;9.688;2022-07-29T04:44:31;26.20;22.90
20610;DHT22;10463;52.378;9.688;2022-07-29T04:47:16;26.20;22.90
20610;DHT22;10463;52.378;9.688;2022-07-29T04:50:02;26.20;22.90
20610;DHT22;10463;52.378;9.688;2022-07-29T04:52:47;26.20;22.90
20610;DHT22;10463;52.378;9.688;2022-07-29T04:55:32;26.20;22.90
20610;DHT22;10463;52.378;9.688;2022-07-29T04:58:17;26.20;22.90
20610;DHT22;10463;52.378;9.688;2022-07-29T05:01:03;26.10;22.90
20610;DHT22;10463;52.378;9.688;2022-07-29T05:03:48;26.20;23.00
20610;DHT22;10463;52.378;9.688;2022-07-29T05:06:34;26.20;23.10
20610;DHT22;10463;52.378;9.688;2022-07-29T05:09:18;26.10;23.10
20610;DHT22;10463;52.378;9.688;2022-07-29T05:12:04;26.10;23.10
20610;DHT22;10463;52.378;9.688;2022-07-29T05:14:49;26.00;23.10
20610;DHT22;10463;52.378;9.688;2022-07-29T05:17:33;26.00;23.10
20610;DHT22;10463;52.378;9.688;2022-07-29T05:20:18;26.00;23.20
20610;DHT22;10463;52.378;9.688;2022-07-29T05:23:04;26.00;23.20
20610;DHT22;10463;52.378;9.688;2022-07-29T05:25:49;26.00;23.20
20610;DHT22;10463;52.378;9.688;2022-07-29T05:28:34;26.00;23.20
20610;DHT22;10463;52.378;9.688;2022-07-29T05:31:19;26.00;23.20
20610;DHT22;10463;52.378;9.688;2022-07-29T05:34:04;26.00;23.30
20610;DHT22;10463;52.378;9.688;2022-07-29T05:36:49;26.00;23.30
20610;DHT22;10463;52.378;9.688;2022-07-29T05:39:36;26.00;23.40
20610;DHT22;10463;52.378;9.688;2022-07-29T05:42:21;26.00;23.40
20610;DHT22;10463;52.378;9.688;2022-07-29T05:45:06;25.90;23.40
20610;DHT22;10463;52.378;9.688;2022-07-29T05:47:51;25.90;23.40
20610;DHT22;10463;52.378;9.688;2022-07-29T05:50:36;25.90;23.40
20610;DHT22;10463;52.378;9.688;2022-07-29T05:53:21;25.90;23.50
20610;DHT22;10463;52.378;9.688;2022-07-29T05:56:07;25.90;23.50
20610;DHT22;10463;52.378;9.688;2022-07-29T05:58:52;25.80;23.50
20610;DHT22;10463;52.378;9.688;2022-07-29T06:01:37;25.80;23.50
20610;DHT22;10463;52.378;9.688;2022-07-29T06:04:24;25.80;23.50
20610;DHT22;10463;52.378;9.688;2022-07-29T06:07:08;25.80;23.60
20610;DHT22;10463;52.378;9.688;2022-07-29T06:09:53;25.80;23.70
20610;DHT22;10463;52.378;9.688;2022-07-29T06:12:39;25.80;23.80
20610;DHT22;10463;52.378;9.688;2022-07-29T06:15:24;25.80;23.90
20610;DHT22;10463;52.378;9.688;2022-07-29T06:18:09;25.70;23.90
20610;DHT22;10463;52.378;9.688;2022-07-29T06:20:55;25.70;24.00
20610;DHT22;10463;52.378;9.688;2022-07-29T06:23:40;25.70;24.20
20610;DHT22;10463;52.378;9.688;2022-07-29T06:26:24;25.70;24.20
20610;DHT22;10463;52.378;9.688;2022-07-29T06:29:11;25.70;24.30
20610;DHT22;10463;52.378;9.688;2022-07-29T06:31:56;25.70;24.40
20610;DHT22;10463;52.378;9.688;2022-07-29T06:34:40;25.60;24.30
20610;DHT22;10463;52.378;9.688;2022-07-29T06:37:25;25.60;24.30
20610;DHT22;10463;52.378;9.688;2022-07-29T06:40:13;25.60;24.30
20610;DHT22;10463;52.378;9.688;2022-07-29T06:43:17;25.60;24.30
20610;DHT22;10463;52.378;9.688;2022-07-29T06:46:06;25.60;24.30
20610;DHT22;10463;52.378;9.688;2022-07-29T06:48:52;25.60;24.40
20610;DHT22;10463;52.378;9.688;2022-07-29T06:51:37;25.60;24.40
20610;DHT22;10463;52.378;9.688;2022-07-29T06:54:22;25.60;24.40
20610;DHT22;10463;52.378;9.688;2022-07-29T06:57:07;25.60;24.50
20610;DHT22;10463;52.378;9.688;2022-07-29T06:59:52;25.60;24.60
20610;DHT22;10463;52.378;9.688;2022-07-29T07:02:38;25.60;24.60
20610;DHT22;10463;52.378;9.688;2022-07-29T07:05:23;25.60;24.60
20610;DHT22;10463;52.378;9.688;2022-07-29T07:08:08;25.60;24.60
20610;DHT22;10463;52.378;9.688;2022-07-29T07:10:53;25.60;24.60
20610;DHT22;10463;52.378;9.688;2022-07-29T07:13:39;25.60;24.60
20610;DHT22;10463;52.378;9.688;2022-07-29T07:16:24;25.60;24.60
20610;DHT22;10463;52.378;9.688;2022-07-29T07:19:10;25.70;24.80
20610;DHT22;10463;52.378;9.688;2022-07-29T07:21:55;25.70;24.90
20610;DHT22;10463;52.378;9.688;2022-07-29T07:24:40;25.70;24.90
20610;DHT22;10463;52.378;9.688;2022-07-29T07:27:24;25.70;24.90
20610;DHT22;10463;52.378;9.688;2022-07-29T07:30:09;25.70;24.90
20610;DHT22;10463;52.378;9.688;2022-07-29T07:32:55;25.70;24.90
20610;DHT22;10463;52.378;9.688;2022-07-29T07:35:41;25.70;24.90
20610;DHT22;10463;52.378;9.688;2022-07-29T07:38:26;25.70;25.00
20610;DHT22;10463;52.378;9.688;2022-07-29T07:41:11;25.70;24.90
20610;DHT22;10463;52.378;9.688;2022-07-29T07:43:55;25.70;24.90
20610;DHT22;10463;52.378;9.688;2022-07-29T07:46:40;25.70;24.90
20610;DHT22;10463;52.378;9.688;2022-07-29T07:49:25;25.70;24.90
20610;DHT22;10463;52.378;9.688;2022-07-29T07:52:11;25.80;25.10
20610;DHT22;10463;52.378;9.688;2022-07-29T07:54:56;25.70;25.00
20610;DHT22;10463;52.378;9.688;2022-07-29T07:57:40;25.80;25.10
20610;DHT22;10463;52.378;9.688;2022-07-29T08:00:26;25.80;25.20
20610;DHT22;10463;52.378;9.688;2022-07-29T08:03:11;25.80;25.10
20610;DHT22;10463;52.378;9.688;2022-07-29T08:05:59;25.80;25.00
20610;DHT22;10463;52.378;9.688;2022-07-29T08:08:45;25.80;25.00
20610;DHT22;10463;52.378;9.688;2022-07-29T08:11:30;25.80;25.10
20610;DHT22;10463;52.378;9.688;2022-07-29T08:14:15;25.80;25.10
20610;DHT22;10463;52.378;9.688;2022-07-29T08:17:00;25.80;25.10
20610;DHT22;10463;52.378;9.688;2022-07-29T08:19:44;25.80;25.10
20610;DHT22;10463;52.378;9.688;2022-07-29T08:22:30;25.80;25.10
20610;DHT22;10463;52.378;9.688;2022-07-29T08:25:16;25.80;25.10
20610;DHT22;10463;52.378;9.688;2022-07-29T08:28:04;25.80;25.10
20610;DHT22;10463;52.378;9.688;2022-07-29T08:30:49;25.80;25.20
20610;DHT22;10463;52.378;9.688;2022-07-29T08:33:34;25.80;25.30
20610;DHT22;10463;52.378;9.688;2022-07-29T08:36:19;25.80;25.20
20610;DHT22;10463;52.378;9.688;2022-07-29T08:39:05;25.80;25.30
20610;DHT22;10463;52.378;9.688;2022-07-29T08:41:52;25.80;25.30
20610;DHT22;10463;52.378;9.688;2022-07-29T08:44:37;25.80;25.30
20610;DHT22;10463;52.378;9.688;2022-07-29T08:47:22;25.80;25.30
20610;DHT22;10463;52.378;9.688;2022-07-29T08:50:07;25.80;25.30
20610;DHT22;10463;52.378;9.688;2022-07-29T08:52:52;25.90;25.30
20610;DHT22;10463;52.378;9.688;2022-07-29T08:55:40;25.90;25.40
20610;DHT22;10463;52.378;9.688;2022-07-29T08:58:32;25.90;25.50
20610;DHT22;10463;52.378;9.688;2022-07-29T09:01:23;25.90;25.60
20610;DHT22;10463;52.378;9.688;2022-07-29T09:04:11;25.90;25.60
20610;DHT22;10463;52.378;9.688;2022-07-29T09:06:57;25.90;25.60
20610;DHT22;10463;52.378;9.688;2022-07-29T09:09:44;25.90;25.70
20610;DHT22;10463;52.378;9.688;2022-07-29T09:12:29;25.90;25.70
20610;DHT22;10463;52.378;9.688;2022-07-29T09:15:17;25.90;25.70
20610;DHT22;10463;52.378;9.688;2022-07-29T09:18:03;25.90;25.70
20610;DHT22;10463;52.378;9.688;2022-07-29T09:20:52;25.90;25.70
20610;DHT22;10463;52.378;9.688;2022-07-29T09:24:06;25.90;25.70
20610;DHT22;10463;52.378;9.688;2022-07-29T09:26:51;25.90;25.70
20610;DHT22;10463;52.378;9.688;2022-07-29T09:29:36;25.90;25.70
20610;DHT22;10463;52.378;9.688;2022-07-29T09:32:24;25.90;25.80
20610;DHT22;10463;52.378;9.688;2022-07-29T09:35:18;25.90;25.80
20610;DHT22;10463;52.378;9.688;2022-07-29T09:38:11;25.90;25.90
20610;DHT22;10463;52.378;9.688;2022-07-29T09:40:57;25.90;25.90
20610;DHT22;10463;52.378;9.688;2022-07-29T09:43:53;25.90;25.90
20610;DHT22;10463;52.378;9.688;2022-07-29T09:46:38;25.90;25.90
20610;DHT22;10463;52.378;9.688;2022-07-29T09:49:25;25.90;25.80
20610;DHT22;10463;52.378;9.688;2022-07-29T09:52:10;25.90;25.90
20610;DHT22;10463;52.378;9.688;2022-07-29T09:55:05;25.90;25.90
20610;DHT22;10463;52.378;9.688;2022-07-29T09:57:50;25.90;26.00
20610;DHT22;10463;52.378;9.688;2022-07-29T10:00:41;26.00;26.10
20610;DHT22;10463;52.378;9.688;2022-07-29T10:03:27;25.90;26.00
20610;DHT22;10463;52.378;9.688;2022-07-29T10:06:13;25.90;26.10
20610;DHT22;10463;52.378;9.688;2022-07-29T10:09:07;26.00;26.10
20610;DHT22;10463;52.378;9.688;2022-07-29T10:12:07;25.90;26.10
20610;DHT22;10463;52.378;9.688;2022-07-29T10:14:54;25.90;26.00
20610;DHT22;10463;52.378;9.688;2022-07-29T10:17:39;25.90;26.00
20610;DHT22;10463;52.378;9.688;2022-07-29T10:20:26;25.90;26.10
20610;DHT22;10463;52.378;9.688;2022-07-29T10:23:13;26.00;26.10
20610;DHT22;10463;52.378;9.688;2022-07-29T10:25:59;26.00;26.10
20610;DHT22;10463;52.378;9.688;2022-07-29T10:28:44;26.00;26.10
20610;DHT22;10463;52.378;9.688;2022-07-29T10:31:36;26.00;26.10
20610;DHT22;10463;52.378;9.688;2022-07-29T10:34:36;26.00;26.20
20610;DHT22;10463;52.378;9.688;2022-07-29T10:37:42;26.00;26.20
20610;DHT22;10463;52.378;9.688;2022-07-29T10:40:41;26.00;26.20
20610;DHT22;10463;52.378;9.688;2022-07-29T10:43:50;26.00;26.20
20610;DHT22;10463;52.378;9.688;2022-07-29T10:46:38;26.00;26.30
20610;DHT22;10463;52.378;9.688;2022-07-29T10:49:24;26.00;26.30
20610;DHT22;10463;52.378;9.688;2022-07-29T10:52:10;26.00;26.30
20610;DHT22;10463;52.378;9.688;2022-07-29T10:54:55;26.00;26.40
20610;DHT22;10463;52.378;9.688;2022-07-29T10:58:12;26.00;26.40
20610;DHT22;10463;52.378;9.688;2022-07-29T11:00:57;26.00;26.40
20610;DHT22;10463;52.378;9.688;2022-07-29T11:04:02;26.00;26.50
20610;DHT22;10463;52.378;9.688;2022-07-29T11:07:16;26.00;26.50
20610;DHT22;10463;52.378;9.688;2022-07-29T11:10:25;26.00;27.10
20610;DHT22;10463;52.378;9.688;2022-07-29T11:13:12;26.00;26.60
20610;DHT22;10463;52.378;9.688;2022-07-29T11:15:57;26.00;26.70
20610;DHT22;10463;52.378;9.688;2022-07-29T11:19:21;26.00;26.70
20610;DHT22;10463;52.378;9.688;2022-07-29T11:22:08;26.00;26.70
20610;DHT22;10463;52.378;9.688;2022-07-29T11:25:15;26.00;26.70
20610;DHT22;10463;52.378;9.688;2022-07-29T11:28:12;26.00;26.70
20610;DHT22;10463;52.378;9.688;2022-07-29T11:30:59;26.00;26.80
20610;DHT22;10463;52.378;9.688;2022-07-29T11:33:44;26.00;26.70
20610;DHT22;10463;52.378;9.688;2022-07-29T11:36:29;26.10;26.80
20610;DHT22;10463;52.378;9.688;2022-07-29T11:39:26;26.00;26.80
20610;DHT22;10463;52.378;9.688;2022-07-29T11:42:41;26.10;26.90
20610;DHT22;10463;52.378;9.688;2022-07-29T11:45:45;26.10;26.90
20610;DHT22;10463;52.378;9.688;2022-07-29T11:48:30;26.10;26.90
20610;DHT22;10463;52.378;9.688;2022-07-29T11:51:15;26.10;26.90
20610;DHT22;10463;52.378;9.688;2022-07-29T11:54:01;26.10;26.90
20610;DHT22;10463;52.378;9.688;2022-07-29T11:56:47;26.10;27.00
20610;DHT22;10463;52.378;9.688;2022-07-29T11:59:39;26.10;27.00
20610;DHT22;10463;52.378;9.688;2022-07-29T12:02:38;26.10;27.10
20610;DHT22;10463;52.378;9.688;2022-07-29T12:05:33;26.20;27.10
20610;DHT22;10463;52.378;9.688;2022-07-29T12:08:22;26.20;27.10
20610;DHT22;10463;52.378;9.688;2022-07-29T12:11:16;26.20;27.20
20610;DHT22;10463;52.378;9.688;2022-07-29T12:14:01;26.20;27.20
20610;DHT22;10463;52.378;9.688;2022-07-29T12:16:47;26.20;27.20
20610;DHT22;10463;52.378;9.688;2022-07-29T12:19:42;26.20;27.30
20610;DHT22;10463;52.378;9.688;2022-07-29T12:22:31;26.20;27.30
20610;DHT22;10463;52.378;9.688;2022-07-29T12:25:17;26.20;27.40
20610;DHT22;10463;52.378;9.688;2022-07-29T12:28:05;26.30;27.40
20610;DHT22;10463;52.378;9.688;2022-07-29T12:30:51;26.30;27.50
20610;DHT22;10463;52.378;9.688;2022-07-29T12:33:36;26.30;27.50
20610;DHT22;10463;52.378;9.688;2022-07-29T12:36:21;26.30;27.50
20610;DHT22;10463;52.378;9.688;2022-07-29T12:39:07;26.30;27.50
20610;DHT22;10463;52.378;9.688;2022-07-29T12:41:54;26.30;27.50
20610;DHT22;10463;52.378;9.688;2022-07-29T12:44:47;26.30;27.50
20610;DHT22;10463;52.378;9.688;2022-07-29T12:47:32;26.40;27.60
20610;DHT22;10463;52.378;9.688;2022-07-29T12:50:17;26.40;27.60
20610;DHT22;10463;52.378;9.688;2022-07-29T12:53:11;26.40;27.60
20610;DHT22;10463;52.378;9.688;2022-07-29T12:55:57;26.40;27.60
20610;DHT22;10463;52.378;9.688;2022-07-29T12:58:44;26.40;27.70
20610;DHT22;10463;52.378;9.688;2022-07-29T13:01:36;26.50;27.80
20610;DHT22;10463;52.378;9.688;2022-07-29T13:04:25;26.50;27.90
20610;DHT22;10463;52.378;9.688;2022-07-29T13:07:11;26.50;27.90
20610;DHT22;10463;52.378;9.688;2022-07-29T13:10:14;26.50;27.80
20610;DHT22;10463;52.378;9.688;2022-07-29T13:13:04;26.50;27.80
20610;DHT22;10463;52.378;9.688;2022-07-29T13:16:07;26.60;27.90
20610;DHT22;10463;52.378;9.688;2022-07-29T13:19:05;26.60;27.80
20610;DHT22;10463;52.378;9.688;2022-07-29T13:21:50;26.60;27.80
20610;DHT22;10463;52.378;9.688;2022-07-29T13:24:45;26.60;27.80
20610;DHT22;10463;52.378;9.688;2022-07-29T13:27:33;26.70;27.80
20610;DHT22;10463;52.378;9.688;2022-07-29T13:30:21;26.70;27.80
20610;DHT22;10463;52.378;9.688;2022-07-29T13:33:06;26.70;27.70
20610;DHT22;10463;52.378;9.688;2022-07-29T13:35:51;26.70;27.70
20610;DHT22;10463;52.378;9.688;2022-07-29T13:38:36;26.80;27.80
20610;DHT22;10463;52.378;9.688;2022-07-29T13:41:21;26.80;28.30
20610;DHT22;10463;52.378;9.688;2022-07-29T13:44:07;26.80;27.80
20610;DHT22;10463;52.378;9.688;2022-07-29T13:46:51;26.80;27.70
20610;DHT22;10463;52.378;9.688;2022-07-29T13:49:36;26.80;27.70
20610;DHT22;10463;52.378;9.688;2022-07-29T13:52:21;26.90;27.80
20610;DHT22;10463;52.378;9.688;2022-07-29T13:55:08;26.90;27.70
20610;DHT22;10463;52.378;9.688;2022-07-29T13:57:53;26.90;27.60
20610;DHT22;10463;52.378;9.688;2022-07-29T14:00:40;27.00;27.50
20610;DHT22;10463;52.378;9.688;2022-07-29T14:03:24;27.00;27.40
20610;DHT22;10463;52.378;9.688;2022-07-29T14:06:10;27.00;27.40
20610;DHT22;10463;52.378;9.688;2022-07-29T14:08:55;27.00;27.30
20610;DHT22;10463;52.378;9.688;2022-07-29T14:11:39;27.10;27.30
20610;DHT22;10463;52.378;9.688;2022-07-29T14:14:25;27.10;27.30
20610;DHT22;10463;52.378;9.688;2022-07-29T14:17:11;27.20;27.30
20610;DHT22;10463;52.378;9.688;2022-07-29T14:19:56;27.20;27.20
20610;DHT22;10463;52.378;9.688;2022-07-29T14:22:40;27.20;27.20
20610;DHT22;10463;52.378;9.688;2022-07-29T14:25:25;27.30;27.20
20610;DHT22;10463;52.378;9.688;2022-07-29T14:28:10;27.30;27.00
20610;DHT22;10463;52.378;9.688;2022-07-29T14:30:55;27.40;27.00
20610;DHT22;10463;52.378;9.688;2022-07-29T14:33:41;27.40;26.90
20610;DHT22;10463;52.378;9.688;2022-07-29T14:36:27;27.40;26.80
20610;DHT22;10463;52.378;9.688;2022-07-29T14:39:12;27.50;26.70
20610;DHT22;10463;52.378;9.688;2022-07-29T14:41:56;27.50;26.70
20610;DHT22;10463;52.378;9.688;2022-07-29T14:44:41;27.50;26.60
20610;DHT22;10463;52.378;9.688;2022-07-29T14:47:26;27.60;26.60
20610;DHT22;10463;52.378;9.688;2022-07-29T14:50:13;27.60;26.60
20610;DHT22;10463;52.378;9.688;2022-07-29T14:53:01;27.70;26.70
20610;DHT22;10463;52.378;9.688;2022-07-29T14:55:45;27.70;26.60
20610;DHT22;10463;52.378;9.688;2022-07-29T14:58:30;27.70;26.50
20610;DHT22;10463;52.378;9.688;2022-07-29T15:01:15;27.70;26.40
20610;DHT22;10463;52.378;9.688;2022-07-29T15:04:01;27.70;26.30
20610;DHT22;10463;52.378;9.688;2022-07-29T15:06:47;27.80;26.40
20610;DHT22;10463;52.378;9.688;2022-07-29T15:09:32;27.80;26.30
20610;DHT22;10463;52.378;9.688;2022-07-29T15:12:17;27.80;26.30
20610;DHT22;10463;52.378;9.688;2022-07-29T15:15:03;27.80;26.20
20610;DHT22;10463;52.378;9.688;2022-07-29T15:17:48;27.80;26.00
20610;DHT22;10463;52.378;9.688;2022-07-29T15:20:33;27.90;26.00
20610;DHT22;10463;52.378;9.688;2022-07-29T15:23:19;27.90;25.90
20610;DHT22;10463;52.378;9.688;2022-07-29T15:26:04;27.90;25.90
20610;DHT22;10463;52.378;9.688;2022-07-29T15:28:49;27.90;25.80
20610;DHT22;10463;52.378;9.688;2022-07-29T15:31:34;28.00;25.70
20610;DHT22;10463;52.378;9.688;2022-07-29T15:34:19;28.00;25.60
20610;DHT22;10463;52.378;9.688;2022-07-29T15:37:05;28.00;25.60
20610;DHT22;10463;52.378;9.688;2022-07-29T15:39:51;28.00;25.50
20610;DHT22;10463;52.378;9.688;2022-07-29T15:42:36;28.10;25.60
20610;DHT22;10463;52.378;9.688;2022-07-29T15:45:22;28.10;25.50
20610;DHT22;10463;52.378;9.688;2022-07-29T15:48:08;28.10;25.40
20610;DHT22;10463;52.378;9.688;2022-07-29T15:50:54;28.10;25.30
20610;DHT22;10463;52.378;9.688;2022-07-29T15:53:39;28.20;25.40
20610;DHT22;10463;52.378;9.688;2022-07-29T15:56:25;28.20;25.40
20610;DHT22;10463;52.378;9.688;2022-07-29T15:59:10;28.20;25.40
20610;DHT22;10463;52.378;9.688;2022-07-29T16:01:55;28.20;25.20
20610;DHT22;10463;52.378;9.688;2022-07-29T16:04:39;28.20;25.20
20610;DHT22;10463;52.378;9.688;2022-07-29T16:07:24;28.30;25.20
20610;DHT22;10463;52.378;9.688;2022-07-29T16:10:09;28.30;25.30
20610;DHT22;10463;52.378;9.688;2022-07-29T16:12:55;28.30;25.30
20610;DHT22;10463;52.378;9.688;2022-07-29T16:15:40;28.40;25.30
20610;DHT22;10463;52.378;9.688;2022-07-29T16:18:25;28.40;25.10
20610;DHT22;10463;52.378;9.688;2022-07-29T16:21:10;28.40;25.00
20610;DHT22;10463;52.378;9.688;2022-07-29T16:23:55;28.40;25.10
20610;DHT22;10463;52.378;9.688;2022-07-29T16:26:40;28.40;24.90
20610;DHT22;10463;52.378;9.688;2022-07-29T16:29:27;28.40;24.80
20610;DHT22;10463;52.378;9.688;2022-07-29T16:32:15;28.40;24.90
20610;DHT22;10463;52.378;9.688;2022-07-29T16:35:00;28.40;24.80
20610;DHT22;10463;52.378;9.688;2022-07-29T16:37:46;28.40;24.60
20610;DHT22;10463;52.378;9.688;2022-07-29T16:40:30;28.50;24.60
20610;DHT22;10463;52.378;9.688;2022-07-29T16:43:15;28.50;24.50
20610;DHT22;10463;52.378;9.688;2022-07-29T16:46:02;28.50;24.40
20610;DHT22;10463;52.378;9.688;2022-07-29T16:48:47;28.50;24.40
20610;DHT22;10463;52.378;9.688;2022-07-29T16:51:32;28.50;24.30
20610;DHT22;10463;52.378;9.688;2022-07-29T16:54:16;28.50;24.40
20610;DHT22;10463;52.378;9.688;2022-07-29T16:57:01;28.50;24.30
20610;DHT22;10463;52.378;9.688;2022-07-29T16:59:46;28.50;24.30
20610;DHT22;10463;52.378;9.688;2022-07-29T17:02:35;28.50;24.30
20610;DHT22;10463;52.378;9.688;2022-07-29T17:05:22;28.50;24.30
20610;DHT22;10463;52.378;9.688;2022-07-29T17:08:07;28.50;24.30
20610;DHT22;10463;52.378;9.688;2022-07-29T17:10:51;28.50;24.10
20610;DHT22;10463;52.378;9.688;2022-07-29T17:13:37;28.50;24.10
20610;DHT22;10463;52.378;9.688;2022-07-29T17:16:21;28.50;24.10
20610;DHT22;10463;52.378;9.688;2022-07-29T17:19:09;28.50;24.10
20610;DHT22;10463;52.378;9.688;2022-07-29T17:21:54;28.50;24.10
20610;DHT22;10463;52.378;9.688;2022-07-29T17:24:39;28.50;24.10
20610;DHT22;10463;52.378;9.688;2022-07-29T17:27:24;28.50;24.10
20610;DHT22;10463;52.378;9.688;2022-07-29T17:30:09;28.50;24.10
20610;DHT22;10463;52.378;9.688;2022-07-29T17:32:54;28.50;24.10
20610;DHT22;10463;52.378;9.688;2022-07-29T17:35:41;28.50;24.10
20610;DHT22;10463;52.378;9.688;2022-07-29T17:38:45;28.50;24.10